createdAt,value
2023-05-19T00:01:29.582Z,101422.02
2023-05-19T00:06:33.376Z,101426.39
2023-05-19T00:11:38.522Z,101429.38
2023-05-19T00:16:42.917Z,101427.72
2023-05-19T00:21:45.817Z,101428.61
2023-05-19T00:26:48.923Z,101419.98
2023-05-19T00:31:51.985Z,101416.89
2023-05-19T00:36:55.045Z,101415.70
2023-05-19T00:41:58.053Z,101410.81
2023-05-19T00:47:01.541Z,101403.68
2023-05-19T00:52:06.817Z,101400.92
2023-05-19T00:57:09.728Z,101396.79
2023-05-19T01:02:13.973Z,101394.04
2023-05-19T01:07:17.078Z,101395.81
2023-05-19T01:12:20.094Z,101393.66
2023-05-19T01:17:34.630Z,101390.92
2023-05-19T01:23:02.352Z,101394.29
2023-05-19T01:28:43.354Z,101397.98
2023-05-19T01:33:47.782Z,101394.95
2023-05-19T01:38:54.383Z,101395.66
2023-05-19T01:43:58.590Z,101390.43
2023-05-19T01:49:02.357Z,101389.33
2023-05-19T01:54:05.356Z,101395.15
2023-05-19T01:59:23.651Z,101396.07
2023-05-19T02:04:40.821Z,101395.29
2023-05-19T02:09:53.792Z,101398.00
2023-05-19T02:15:21.683Z,101399.66
2023-05-19T02:20:24.712Z,101402.17
2023-05-19T02:25:27.798Z,101404.56
2023-05-19T02:30:32.398Z,101404.66
2023-05-19T02:35:35.579Z,101406.69
2023-05-19T02:40:38.551Z,101404.83
2023-05-19T02:45:41.462Z,101399.58
2023-05-19T02:50:44.457Z,101399.95
2023-05-19T02:55:47.471Z,101400.28
2023-05-19T03:00:51.700Z,101396.95
2023-05-19T03:05:54.916Z,101396.81
2023-05-19T03:10:58.331Z,101395.69
2023-05-19T03:16:02.332Z,101402.01
2023-05-19T03:21:06.293Z,101400.60
2023-05-19T03:26:09.311Z,101397.59
2023-05-19T03:31:13.438Z,101399.31
2023-05-19T03:36:16.441Z,101405.30
2023-05-19T03:41:19.649Z,101400.70
2023-05-19T03:46:22.652Z,101396.70
2023-05-19T03:51:26.136Z,101398.56
2023-05-19T03:56:29.137Z,101404.73
2023-05-19T04:01:32.089Z,101398.27
2023-05-19T04:06:36.651Z,101400.45
2023-05-19T04:11:40.557Z,101401.10
2023-05-19T04:16:44.307Z,101402.02
2023-05-19T04:21:47.298Z,101397.70
2023-05-19T04:26:50.404Z,101403.74
2023-05-19T04:31:53.405Z,101406.84
2023-05-19T04:36:56.423Z,101411.14
2023-05-19T04:42:00.451Z,101414.03
2023-05-19T04:47:03.633Z,101414.64
2023-05-19T04:52:11.373Z,101418.86
2023-05-19T04:57:14.621Z,101420.85
2023-05-19T05:02:17.816Z,101428.45
2023-05-19T05:07:24.173Z,101430.94
2023-05-19T05:12:27.873Z,101431.37
2023-05-19T05:17:32.353Z,101432.72
2023-05-19T05:22:36.270Z,101430.90
2023-05-19T05:27:39.372Z,101427.31
2023-05-19T05:32:42.561Z,101422.73
2023-05-19T05:37:46.042Z,101422.52
2023-05-19T05:42:49.124Z,101423.44
2023-05-19T05:47:52.606Z,101426.58
2023-05-19T05:52:56.168Z,101427.25
2023-05-19T05:58:02.140Z,101428.14
2023-05-19T06:03:24.598Z,101429.73
2023-05-19T06:08:28.119Z,101432.33
2023-05-19T06:13:31.429Z,101437.04
2023-05-19T06:18:34.849Z,101439.36
2023-05-19T06:23:38.404Z,101437.66
2023-05-19T06:28:41.478Z,101441.36
2023-05-19T06:33:44.831Z,101442.63
2023-05-19T06:38:48.205Z,101441.89
2023-05-19T06:43:51.426Z,101443.06
2023-05-19T06:48:54.632Z,101444.61
2023-05-19T06:53:57.635Z,101441.29
2023-05-19T06:59:00.957Z,101447.36
2023-05-19T07:04:04.152Z,101451.41
2023-05-19T07:09:07.576Z,101453.08
2023-05-19T07:14:11.204Z,101450.91
2023-05-19T07:19:14.239Z,101454.14
2023-05-19T07:24:17.777Z,101455.63
2023-05-19T07:29:20.933Z,101460.69
2023-05-19T07:34:24.904Z,101464.60
2023-05-19T07:39:30.012Z,101465.10
2023-05-19T07:44:33.023Z,101467.83
2023-05-19T07:49:36.085Z,101471.04
2023-05-19T07:54:39.135Z,101472.45
2023-05-19T07:59:42.452Z,101479.23
2023-05-19T08:04:46.255Z,101484.07
2023-05-19T08:09:49.284Z,101477.44
2023-05-19T08:14:52.852Z,101472.97
2023-05-19T08:19:55.911Z,101465.98
2023-05-19T08:24:58.776Z,101462.79
2023-05-19T08:30:01.760Z,101468.89
2023-05-19T08:35:05.140Z,101470.95
2023-05-19T08:40:12.068Z,101469.22
2023-05-19T08:45:15.453Z,101467.37
2023-05-19T08:50:25.661Z,101464.92
2023-05-19T08:56:11.221Z,101463.34
2023-05-19T09:01:18.172Z,101464.38
2023-05-19T09:06:21.858Z,101463.62
2023-05-19T09:11:24.970Z,101468.03
2023-05-19T09:16:29.926Z,101472.48
2023-05-19T09:21:33.947Z,101471.39
2023-05-19T09:26:38.693Z,101466.17
2023-05-19T09:31:56.368Z,101468.56
2023-05-19T09:37:00.463Z,101465.27
2023-05-19T09:42:04.953Z,101467.62
2023-05-19T09:47:09.882Z,101467.36
2023-05-19T09:52:16.767Z,101462.33
2023-05-19T09:57:27.264Z,101459.53
2023-05-19T10:02:31.748Z,101463.56
2023-05-19T10:07:35.833Z,101461.17
2023-05-19T10:12:39.739Z,101460.58
2023-05-19T10:17:44.322Z,101460.37
2023-05-19T10:22:48.128Z,101460.23
2023-05-19T10:28:01.615Z,101457.15
2023-05-19T10:33:10.658Z,101463.91
2023-05-19T10:38:38.817Z,101469.08
2023-05-19T10:43:51.753Z,101465.71
2023-05-19T10:48:55.962Z,101461.09
2023-05-19T10:54:03.037Z,101463.45
2023-05-19T10:59:06.309Z,101461.88
2023-05-19T11:04:15.164Z,101460.73
2023-05-19T11:09:22.532Z,101463.14
2023-05-19T11:14:32.858Z,101464.99
2023-05-19T11:19:36.502Z,101460.45
2023-05-19T11:24:44.845Z,101452.37
2023-05-19T11:29:48.589Z,101448.19
2023-05-19T11:34:52.773Z,101447.23
2023-05-19T11:39:55.967Z,101440.65
2023-05-19T11:44:59.075Z,101443.69
2023-05-19T11:50:02.186Z,101450.84
2023-05-19T11:55:06.852Z,101458.30
2023-05-19T12:00:11.556Z,101458.30
2023-05-19T12:05:26.139Z,101459.62
2023-05-19T12:10:31.918Z,101454.70
2023-05-19T12:15:35.982Z,101453.80
2023-05-19T12:20:39.662Z,101450.44
2023-05-19T12:25:42.623Z,101448.84
2023-05-19T12:30:52.235Z,101453.86
2023-05-19T12:35:55.748Z,101458.23
2023-05-19T12:41:00.307Z,101457.29
2023-05-19T12:46:13.635Z,101458.29
2023-05-19T12:51:18.201Z,101464.90
2023-05-19T12:56:22.833Z,101467.70
2023-05-19T13:01:26.188Z,101469.58
2023-05-19T13:06:29.369Z,101461.70
2023-05-19T13:11:32.388Z,101456.30
2023-05-19T13:16:35.408Z,101443.83
2023-05-19T13:21:38.284Z,101433.48
2023-05-19T13:26:42.010Z,101428.36
2023-05-19T13:31:45.237Z,101424.98
2023-05-19T13:36:49.207Z,101413.17
2023-05-19T13:41:52.362Z,101414.19
2023-05-19T13:46:55.445Z,101422.09
2023-05-19T13:52:00.227Z,101432.20
2023-05-19T13:57:03.330Z,101434.17
2023-05-19T14:02:08.065Z,101431.59
2023-05-19T14:07:11.189Z,101435.70
2023-05-19T14:12:14.191Z,101438.09
2023-05-19T14:17:17.092Z,101426.93
2023-05-19T14:22:20.132Z,101418.09
2023-05-19T14:27:23.016Z,101414.78
2023-05-19T14:32:27.882Z,101402.45
2023-05-19T14:37:32.621Z,101400.06
2023-05-19T14:42:35.614Z,101401.92
2023-05-19T14:47:38.542Z,101399.65
2023-05-19T14:52:41.618Z,101407.21
2023-05-19T14:57:44.663Z,101415.39
2023-05-19T15:02:48.264Z,101410.34
2023-05-19T15:07:51.554Z,101411.09
2023-05-19T15:12:54.574Z,101420.04
2023-05-19T15:17:57.673Z,101414.16
2023-05-19T15:23:00.799Z,101410.80
2023-05-19T15:28:04.003Z,101404.98
2023-05-19T15:33:07.067Z,101395.61
2023-05-19T15:38:10.115Z,101396.94
2023-05-19T15:43:13.466Z,101392.41
2023-05-19T15:48:16.665Z,101389.11
2023-05-19T15:53:20.685Z,101388.92
2023-05-19T15:58:23.787Z,101386.49
2023-05-19T16:03:27.549Z,101382.14
2023-05-19T16:08:31.343Z,101385.08
2023-05-19T16:13:34.556Z,101388.94
2023-05-19T16:18:37.806Z,101388.22
2023-05-19T16:23:40.972Z,101390.35
2023-05-19T16:28:44.260Z,101386.85
2023-05-19T16:33:47.492Z,101385.59
2023-05-19T16:38:50.497Z,101386.08
2023-05-19T16:43:53.503Z,101388.02
2023-05-19T16:48:56.818Z,101387.70
2023-05-19T16:54:00.446Z,101387.08
2023-05-19T16:59:03.448Z,101386.36
2023-05-19T17:04:07.784Z,101387.91
2023-05-19T17:09:10.786Z,101383.58
2023-05-19T17:14:14.415Z,101383.67
2023-05-19T17:19:17.439Z,101382.00
2023-05-19T17:24:20.521Z,101385.08
2023-05-19T17:29:23.636Z,101383.61
2023-05-19T17:34:26.749Z,101386.48
2023-05-19T17:39:29.745Z,101387.09
2023-05-19T17:44:33.058Z,101388.42
2023-05-19T17:49:36.198Z,101386.42
2023-05-19T17:54:39.411Z,101388.66
2023-05-19T17:59:42.818Z,101387.03
2023-05-19T18:04:46.457Z,101393.15
2023-05-19T18:09:51.678Z,101393.75
2023-05-19T18:14:55.300Z,101391.90
2023-05-19T18:19:59.025Z,101390.15
2023-05-19T18:25:02.148Z,101387.49
2023-05-19T18:30:06.522Z,101388.54
2023-05-19T18:35:10.065Z,101391.20
2023-05-19T18:40:13.314Z,101396.47
2023-05-19T18:45:16.317Z,101398.19
2023-05-19T18:50:19.624Z,101398.96
2023-05-19T18:55:23.537Z,101396.45
2023-05-19T19:00:28.290Z,101399.64
2023-05-19T19:05:31.509Z,101402.66
2023-05-19T19:10:37.293Z,101403.92
2023-05-19T19:15:40.287Z,101403.45
2023-05-19T19:20:43.293Z,101408.27
2023-05-19T19:25:46.404Z,101412.11
2023-05-19T19:30:49.799Z,101415.02
2023-05-19T19:35:52.722Z,101418.63
2023-05-19T19:40:55.743Z,101418.29
2023-05-19T19:46:04.609Z,101417.98
2023-05-19T19:51:07.794Z,101417.50
2023-05-19T19:56:10.901Z,101420.73
2023-05-19T20:01:13.905Z,101421.52
2023-05-19T20:06:17.019Z,101429.21
2023-05-19T20:11:23.113Z,101429.35
2023-05-19T20:16:26.237Z,101426.77
2023-05-19T20:21:29.309Z,101426.59
2023-05-19T20:26:32.498Z,101427.96
2023-05-19T20:31:35.633Z,101432.61
2023-05-19T20:36:38.634Z,101434.30
2023-05-19T20:41:41.644Z,101433.00
2023-05-19T20:46:44.653Z,101430.73
2023-05-19T20:51:47.860Z,101429.35
2023-05-19T20:56:52.003Z,101427.65
2023-05-19T21:01:55.001Z,101421.84
2023-05-19T21:06:58.148Z,101414.89
2023-05-19T21:12:01.361Z,101414.55
2023-05-19T21:17:04.906Z,101417.52
2023-05-19T21:22:07.950Z,101418.48
2023-05-19T21:27:11.781Z,101419.33
2023-05-19T21:32:14.882Z,101415.56
2023-05-19T21:37:17.895Z,101417.35
2023-05-19T21:42:20.895Z,101421.80
2023-05-19T21:47:23.741Z,101425.88
2023-05-19T21:52:26.704Z,101427.17
2023-05-19T21:57:29.611Z,101424.58
2023-05-19T22:02:32.538Z,101426.27
2023-05-19T22:07:36.027Z,101425.73
2023-05-19T22:12:39.039Z,101423.19
2023-05-19T22:17:42.773Z,101417.28
2023-05-19T22:22:45.870Z,101414.17
2023-05-19T22:27:48.887Z,101413.14
2023-05-19T22:32:51.809Z,101415.84
2023-05-19T22:37:54.753Z,101418.09
2023-05-19T22:42:57.796Z,101421.27
2023-05-19T22:48:00.948Z,101421.69
2023-05-19T22:53:03.906Z,101425.16
2023-05-19T22:58:06.808Z,101423.21
2023-05-19T23:03:09.758Z,101423.92
2023-05-19T23:08:12.823Z,101423.75
2023-05-19T23:13:15.829Z,101423.26
2023-05-19T23:18:18.839Z,101418.63
2023-05-19T23:23:21.848Z,101416.33
2023-05-19T23:28:24.862Z,101413.83
2023-05-19T23:33:27.860Z,101411.36
2023-05-19T23:38:30.866Z,101415.40
2023-05-19T23:43:33.886Z,101415.58
2023-05-19T23:48:36.882Z,101418.52
2023-05-19T23:53:39.888Z,101414.55
2023-05-19T23:58:42.790Z,101413.13
